sensor_id;sensor_type;location;lat;lon;timestamp;pressure;altitude;pressure_sealevel;temperature;humidity
9521;BME280;4798;41.574;23.734;2023-02-17T00:01:26;96394.16;;;3.61;62.52
9521;BME280;4798;41.574;23.734;2023-02-17T00:03:57;96419.78;;;3.66;63.43
9521;BME280;4798;41.574;23.734;2023-02-17T00:06:28;96420.19;;;3.63;63.22
9521;BME280;4798;41.574;23.734;2023-02-17T00:08:57;96408.84;;;3.36;64.42
9521;BME280;4798;41.574;23.734;2023-02-17T00:11:28;96395.88;;;3.21;65.45
9521;BME280;4798;41.574;23.734;2023-02-17T00:13:56;96392.41;;;3.08;65.76
9521;BME280;4798;41.574;23.734;2023-02-17T00:16:27;96404.91;;;3.12;66.19
9521;BME280;4798;41.574;23.734;2023-02-17T00:19:00;96418.13;;;3.39;65.94
9521;BME280;4798;41.574;23.734;2023-02-17T00:21:52;96416.28;;;3.39;65.56
9521;BME280;4798;41.574;23.734;2023-02-17T00:24:21;96396.63;;;3.09;66.07
9521;BME280;4798;41.574;23.734;2023-02-17T00:26:49;96401.69;;;3.10;66.02
9521;BME280;4798;41.574;23.734;2023-02-17T00:29:17;96394.66;;;3.11;65.47
9521;BME280;4798;41.574;23.734;2023-02-17T00:31:46;96415.81;;;3.16;65.49
9521;BME280;4798;41.574;23.734;2023-02-17T00:34:17;96418.66;;;3.21;65.50
9521;BME280;4798;41.574;23.734;2023-02-17T00:36:45;96371.13;;;2.77;65.06
9521;BME280;4798;41.574;23.734;2023-02-17T00:39:15;96205.66;;;1.80;65.57
9521;BME280;4798;41.574;23.734;2023-02-17T00:41:44;96333.91;;;2.40;66.24
9521;BME280;4798;41.574;23.734;2023-02-17T00:44:16;96390.69;;;2.81;67.41
9521;BME280;4798;41.574;23.734;2023-02-17T00:46:45;96379.03;;;2.83;66.40
9521;BME280;4798;41.574;23.734;2023-02-17T00:49:15;96409.25;;;2.86;66.26
9521;BME280;4798;41.574;23.734;2023-02-17T00:51:46;96335.31;;;2.36;66.62
9521;BME280;4798;41.574;23.734;2023-02-17T00:54:15;96384.44;;;2.75;67.47
9521;BME280;4798;41.574;23.734;2023-02-17T00:56:44;96411.06;;;2.92;67.08
9521;BME280;4798;41.574;23.734;2023-02-17T00:59:13;96397.00;;;2.93;67.05
9521;BME280;4798;41.574;23.734;2023-02-17T01:01:41;96393.91;;;2.14;70.62
9521;BME280;4798;41.574;23.734;2023-02-17T01:04:10;96351.47;;;2.46;70.00
9521;BME280;4798;41.574;23.734;2023-02-17T01:06:39;96364.84;;;2.65;68.51
9521;BME280;4798;41.574;23.734;2023-02-17T01:09:12;96326.09;;;2.47;68.28
9521;BME280;4798;41.574;23.734;2023-02-17T01:11:41;96387.06;;;2.82;68.20
9521;BME280;4798;41.574;23.734;2023-02-17T01:14:12;96367.53;;;2.78;68.70
9521;BME280;4798;41.574;23.734;2023-02-17T01:16:43;96373.59;;;2.85;67.80
9521;BME280;4798;41.574;23.734;2023-02-17T01:19:15;96321.31;;;2.57;67.93
9521;BME280;4798;41.574;23.734;2023-02-17T01:21:44;96371.56;;;2.87;67.39
9521;BME280;4798;41.574;23.734;2023-02-17T01:24:13;96379.84;;;2.90;67.43
9521;BME280;4798;41.574;23.734;2023-02-17T01:26:42;96380.03;;;2.82;67.29
9521;BME280;4798;41.574;23.734;2023-02-17T01:29:10;96367.06;;;2.68;67.85
9521;BME280;4798;41.574;23.734;2023-02-17T01:31:39;96333.44;;;2.30;68.25
9521;BME280;4798;41.574;23.734;2023-02-17T01:34:09;96378.50;;;2.60;69.14
9521;BME280;4798;41.574;23.734;2023-02-17T01:36:37;96364.34;;;2.48;70.05
9521;BME280;4798;41.574;23.734;2023-02-17T01:39:06;96366.66;;;2.30;71.39
9521;BME280;4798;41.574;23.734;2023-02-17T01:41:35;96368.94;;;2.39;72.71
9521;BME280;4798;41.574;23.734;2023-02-17T01:44:06;96369.63;;;2.54;71.47
9521;BME280;4798;41.574;23.734;2023-02-17T01:46:35;96367.59;;;2.50;72.12
9521;BME280;4798;41.574;23.734;2023-02-17T01:49:14;96363.63;;;2.61;71.02
9521;BME280;4798;41.574;23.734;2023-02-17T01:51:46;96364.75;;;2.45;71.29
9521;BME280;4798;41.574;23.734;2023-02-17T01:54:20;96343.34;;;2.35;70.70
9521;BME280;4798;41.574;23.734;2023-02-17T01:56:52;96350.00;;;2.37;71.03
9521;BME280;4798;41.574;23.734;2023-02-17T01:59:21;96357.22;;;2.35;71.29
9521;BME280;4798;41.574;23.734;2023-02-17T02:01:54;96353.88;;;2.48;70.07
9521;BME280;4798;41.574;23.734;2023-02-17T02:04:27;96326.75;;;2.21;70.51
9521;BME280;4798;41.574;23.734;2023-02-17T02:06:57;96337.75;;;2.10;72.38
9521;BME280;4798;41.574;23.734;2023-02-17T02:09:30;96337.94;;;2.09;73.14
9521;BME280;4798;41.574;23.734;2023-02-17T02:12:01;96342.06;;;2.24;72.69
9521;BME280;4798;41.574;23.734;2023-02-17T02:14:32;96312.91;;;1.93;71.94
9521;BME280;4798;41.574;23.734;2023-02-17T02:17:06;96325.91;;;2.14;71.51
9521;BME280;4798;41.574;23.734;2023-02-17T02:19:57;96332.59;;;2.23;71.17
9521;BME280;4798;41.574;23.734;2023-02-17T02:22:46;96260.94;;;1.77;71.19
9521;BME280;4798;41.574;23.734;2023-02-17T02:25:37;96334.75;;;2.13;71.24
9521;BME280;4798;41.574;23.734;2023-02-17T02:28:20;96322.97;;;1.96;71.18
9521;BME280;4798;41.574;23.734;2023-02-17T02:31:15;96315.25;;;1.81;71.51
9521;BME280;4798;41.574;23.734;2023-02-17T02:33:51;96337.69;;;1.97;72.73
9521;BME280;4798;41.574;23.734;2023-02-17T02:36:27;96343.06;;;1.89;72.75
9521;BME280;4798;41.574;23.734;2023-02-17T02:38:58;96340.59;;;1.87;72.72
9521;BME280;4798;41.574;23.734;2023-02-17T02:41:31;96316.31;;;1.87;72.21
9521;BME280;4798;41.574;23.734;2023-02-17T02:44:03;96344.28;;;1.93;72.10
9521;BME280;4798;41.574;23.734;2023-02-17T02:46:35;96341.06;;;1.91;71.87
9521;BME280;4798;41.574;23.734;2023-02-17T02:49:05;96339.66;;;1.95;72.48
9521;BME280;4798;41.574;23.734;2023-02-17T02:51:42;96289.38;;;1.65;72.33
9521;BME280;4798;41.574;23.734;2023-02-17T02:54:23;96342.91;;;1.97;71.37
9521;BME280;4798;41.574;23.734;2023-02-17T02:57:02;96340.06;;;1.92;70.98
9521;BME280;4798;41.574;23.734;2023-02-17T02:59:41;96335.81;;;1.91;71.97
9521;BME280;4798;41.574;23.734;2023-02-17T03:02:17;96322.75;;;1.63;72.25
9521;BME280;4798;41.574;23.734;2023-02-17T03:04:54;96332.94;;;1.79;72.72
9521;BME280;4798;41.574;23.734;2023-02-17T03:07:29;96335.38;;;1.87;71.96
9521;BME280;4798;41.574;23.734;2023-02-17T03:09:59;96344.75;;;2.03;71.29
9521;BME280;4798;41.574;23.734;2023-02-17T03:12:28;96322.31;;;1.87;71.66
9521;BME280;4798;41.574;23.734;2023-02-17T03:15:01;96320.75;;;1.93;71.89
9521;BME280;4798;41.574;23.734;2023-02-17T03:17:32;96344.75;;;2.03;71.54
9521;BME280;4798;41.574;23.734;2023-02-17T03:20:03;96324.06;;;1.80;71.93
9521;BME280;4798;41.574;23.734;2023-02-17T03:22:34;96344.97;;;1.80;72.54
9521;BME280;4798;41.574;23.734;2023-02-17T03:25:04;96289.63;;;1.21;73.99
9521;BME280;4798;41.574;23.734;2023-02-17T03:27:32;96284.97;;;1.38;75.40
9521;BME280;4798;41.574;23.734;2023-02-17T03:30:01;96336.00;;;1.41;77.29
9521;BME280;4798;41.574;23.734;2023-02-17T03:32:29;96311.69;;;0.98;79.87
9521;BME280;4798;41.574;23.734;2023-02-17T03:34:58;96320.72;;;0.95;81.75
9521;BME280;4798;41.574;23.734;2023-02-17T03:37:27;96320.22;;;1.27;80.46
9521;BME280;4798;41.574;23.734;2023-02-17T03:39:56;96337.31;;;1.51;76.54
9521;BME280;4798;41.574;23.734;2023-02-17T03:42:25;96334.13;;;1.77;75.69
9521;BME280;4798;41.574;23.734;2023-02-17T03:44:53;96339.75;;;1.32;78.49
9521;BME280;4798;41.574;23.734;2023-02-17T03:47:22;96346.09;;;1.44;78.94
9521;BME280;4798;41.574;23.734;2023-02-17T03:49:50;96343.47;;;1.44;78.11
9521;BME280;4798;41.574;23.734;2023-02-17T03:52:18;96335.81;;;1.42;78.58
9521;BME280;4798;41.574;23.734;2023-02-17T03:54:48;96332.78;;;0.82;81.66
9521;BME280;4798;41.574;23.734;2023-02-17T03:57:18;96329.66;;;1.07;82.55
9521;BME280;4798;41.574;23.734;2023-02-17T03:59:46;96332.16;;;1.15;84.13
9521;BME280;4798;41.574;23.734;2023-02-17T04:02:15;96334.94;;;1.14;84.43
9521;BME280;4798;41.574;23.734;2023-02-17T04:04:43;96301.06;;;0.99;85.49
9521;BME280;4798;41.574;23.734;2023-02-17T04:07:11;96337.19;;;1.17;83.96
9521;BME280;4798;41.574;23.734;2023-02-17T04:09:40;96333.75;;;1.16;83.29
9521;BME280;4798;41.574;23.734;2023-02-17T04:12:09;96335.84;;;1.21;83.96
9521;BME280;4798;41.574;23.734;2023-02-17T04:14:38;96321.66;;;1.51;81.11
9521;BME280;4798;41.574;23.734;2023-02-17T04:17:06;96294.19;;;1.13;80.52
9521;BME280;4798;41.574;23.734;2023-02-17T04:19:34;96343.00;;;1.34;81.17
9521;BME280;4798;41.574;23.734;2023-02-17T04:22:03;96273.03;;;0.87;80.27
9521;BME280;4798;41.574;23.734;2023-02-17T04:24:35;96338.94;;;1.10;82.30
9521;BME280;4798;41.574;23.734;2023-02-17T04:27:03;96324.81;;;1.25;80.24
9521;BME280;4798;41.574;23.734;2023-02-17T04:29:33;96346.72;;;1.46;78.09
9521;BME280;4798;41.574;23.734;2023-02-17T04:32:02;96337.44;;;1.64;77.98
9521;BME280;4798;41.574;23.734;2023-02-17T04:34:33;96329.16;;;1.61;79.08
9521;BME280;4798;41.574;23.734;2023-02-17T04:37:02;96343.56;;;1.29;81.27
9521;BME280;4798;41.574;23.734;2023-02-17T04:39:30;96343.56;;;1.29;84.04
9521;BME280;4798;41.574;23.734;2023-02-17T04:41:58;96280.38;;;0.98;81.25
9521;BME280;4798;41.574;23.734;2023-02-17T04:44:27;96338.69;;;1.47;79.44
9521;BME280;4798;41.574;23.734;2023-02-17T04:46:56;96326.44;;;1.48;78.22
9521;BME280;4798;41.574;23.734;2023-02-17T04:49:25;96328.78;;;1.21;79.67
9521;BME280;4798;41.574;23.734;2023-02-17T04:51:53;96333.22;;;1.21;81.50
9521;BME280;4798;41.574;23.734;2023-02-17T04:54:21;96330.28;;;1.31;79.11
9521;BME280;4798;41.574;23.734;2023-02-17T04:56:50;96331.59;;;1.41;77.67
9521;BME280;4798;41.574;23.734;2023-02-17T04:59:18;96337.66;;;1.42;77.40
9521;BME280;4798;41.574;23.734;2023-02-17T05:01:46;96329.97;;;1.40;77.15
9521;BME280;4798;41.574;23.734;2023-02-17T05:04:16;96333.28;;;1.49;76.83
9521;BME280;4798;41.574;23.734;2023-02-17T05:06:44;96343.94;;;1.11;79.04
9521;BME280;4798;41.574;23.734;2023-02-17T05:09:13;96343.84;;;0.98;83.15
9521;BME280;4798;41.574;23.734;2023-02-17T05:11:41;96341.44;;;0.82;84.82
9521;BME280;4798;41.574;23.734;2023-02-17T05:14:09;96342.31;;;0.89;86.20
9521;BME280;4798;41.574;23.734;2023-02-17T05:16:38;96272.78;;;0.82;82.96
9521;BME280;4798;41.574;23.734;2023-02-17T05:19:06;96311.44;;;1.14;80.75
9521;BME280;4798;41.574;23.734;2023-02-17T05:21:36;96350.00;;;1.54;79.33
9521;BME280;4798;41.574;23.734;2023-02-17T05:24:05;96263.28;;;0.95;79.88
9521;BME280;4798;41.574;23.734;2023-02-17T05:26:33;96256.56;;;0.65;82.19
9521;BME280;4798;41.574;23.734;2023-02-17T05:29:02;96339.75;;;1.32;80.34
9521;BME280;4798;41.574;23.734;2023-02-17T05:31:30;96331.16;;;1.16;79.54
9521;BME280;4798;41.574;23.734;2023-02-17T05:33:58;96346.59;;;1.33;79.49
9521;BME280;4798;41.574;23.734;2023-02-17T05:36:27;96336.25;;;1.67;77.58
9521;BME280;4798;41.574;23.734;2023-02-17T05:38:57;96330.19;;;1.39;76.97
9521;BME280;4798;41.574;23.734;2023-02-17T05:41:25;96341.19;;;1.34;78.95
9521;BME280;4798;41.574;23.734;2023-02-17T05:43:56;96342.78;;;1.14;79.81
9521;BME280;4798;41.574;23.734;2023-02-17T05:46:25;96354.44;;;1.54;80.08
9521;BME280;4798;41.574;23.734;2023-02-17T05:48:56;96353.63;;;1.53;79.77
9521;BME280;4798;41.574;23.734;2023-02-17T05:51:28;96275.66;;;1.08;78.05
9521;BME280;4798;41.574;23.734;2023-02-17T05:53:58;96345.34;;;1.28;78.82
9521;BME280;4798;41.574;23.734;2023-02-17T05:56:26;96351.50;;;1.42;79.17
9521;BME280;4798;41.574;23.734;2023-02-17T05:58:54;96357.97;;;1.95;77.06
9521;BME280;4798;41.574;23.734;2023-02-17T06:01:23;96160.84;;;1.14;75.23
9521;BME280;4798;41.574;23.734;2023-02-17T06:03:51;96351.88;;;2.50;74.30
9521;BME280;4798;41.574;23.734;2023-02-17T06:06:19;96347.03;;;2.47;74.30
9521;BME280;4798;41.574;23.734;2023-02-17T06:08:48;96353.47;;;2.51;74.42
9521;BME280;4798;41.574;23.734;2023-02-17T06:11:17;96351.66;;;2.86;72.24
9521;BME280;4798;41.574;23.734;2023-02-17T06:13:46;96339.19;;;2.94;71.46
9521;BME280;4798;41.574;23.734;2023-02-17T06:16:14;96358.75;;;3.05;71.01
9521;BME280;4798;41.574;23.734;2023-02-17T06:18:42;96350.09;;;3.04;70.85
9521;BME280;4798;41.574;23.734;2023-02-17T06:21:11;96345.31;;;3.21;70.47
9521;BME280;4798;41.574;23.734;2023-02-17T06:23:39;96355.31;;;2.98;69.75
9521;BME280;4798;41.574;23.734;2023-02-17T06:26:07;96361.03;;;2.67;71.70
9521;BME280;4798;41.574;23.734;2023-02-17T06:28:40;96364.97;;;3.04;71.84
9521;BME280;4798;41.574;23.734;2023-02-17T06:31:08;96355.63;;;3.42;70.13
9521;BME280;4798;41.574;23.734;2023-02-17T06:33:37;96359.03;;;3.49;70.53
9521;BME280;4798;41.574;23.734;2023-02-17T06:36:06;96354.25;;;3.85;69.45
9521;BME280;4798;41.574;23.734;2023-02-17T06:38:36;96285.66;;;3.30;68.23
9521;BME280;4798;41.574;23.734;2023-02-17T06:41:07;96356.44;;;3.49;69.52
9521;BME280;4798;41.574;23.734;2023-02-17T06:43:35;96353.03;;;3.88;69.12
9521;BME280;4798;41.574;23.734;2023-02-17T06:46:05;96358.66;;;3.65;68.79
9521;BME280;4798;41.574;23.734;2023-02-17T06:48:35;96350.41;;;3.75;69.63
9521;BME280;4798;41.574;23.734;2023-02-17T06:51:04;96355.66;;;3.81;69.31
9521;BME280;4798;41.574;23.734;2023-02-17T06:53:32;96345.16;;;3.55;69.88
9521;BME280;4798;41.574;23.734;2023-02-17T06:56:01;96351.22;;;4.02;69.35
9521;BME280;4798;41.574;23.734;2023-02-17T06:58:29;96346.34;;;4.25;68.05
9521;BME280;4798;41.574;23.734;2023-02-17T07:00:58;96352.63;;;4.17;68.87
9521;BME280;4798;41.574;23.734;2023-02-17T07:03:28;96356.31;;;4.74;67.73
9521;BME280;4798;41.574;23.734;2023-02-17T07:05:56;96348.25;;;4.75;67.58
9521;BME280;4798;41.574;23.734;2023-02-17T07:08:25;96274.38;;;4.96;65.58
9521;BME280;4798;41.574;23.734;2023-02-17T07:10:53;96344.03;;;5.74;64.09
9521;BME280;4798;41.574;23.734;2023-02-17T07:13:21;96345.88;;;5.74;63.84
9521;BME280;4798;41.574;23.734;2023-02-17T07:15:49;96342.16;;;5.88;63.06
9521;BME280;4798;41.574;23.734;2023-02-17T07:18:18;96335.16;;;6.43;61.54
9521;BME280;4798;41.574;23.734;2023-02-17T07:20:48;96340.88;;;6.58;60.69
9521;BME280;4798;41.574;23.734;2023-02-17T07:23:16;96339.94;;;6.34;61.50
9521;BME280;4798;41.574;23.734;2023-02-17T07:25:44;96331.28;;;6.46;61.51
9521;BME280;4798;41.574;23.734;2023-02-17T07:28:13;96330.06;;;7.02;60.16
9521;BME280;4798;41.574;23.734;2023-02-17T07:30:42;96339.53;;;7.22;59.72
9521;BME280;4798;41.574;23.734;2023-02-17T07:33:10;96330.50;;;6.99;60.59
9521;BME280;4798;41.574;23.734;2023-02-17T07:35:40;96334.66;;;7.07;60.18
9521;BME280;4798;41.574;23.734;2023-02-17T07:38:11;96317.28;;;6.70;60.06
9521;BME280;4798;41.574;23.734;2023-02-17T07:40:40;96338.25;;;7.54;59.09
9521;BME280;4798;41.574;23.734;2023-02-17T07:43:08;96337.59;;;6.99;59.98
9521;BME280;4798;41.574;23.734;2023-02-17T07:45:36;96340.00;;;7.48;60.57
9521;BME280;4798;41.574;23.734;2023-02-17T07:48:05;96337.47;;;7.53;59.49
9521;BME280;4798;41.574;23.734;2023-02-17T07:50:33;96331.63;;;8.16;57.52
9521;BME280;4798;41.574;23.734;2023-02-17T07:53:01;96329.84;;;8.91;55.77
9521;BME280;4798;41.574;23.734;2023-02-17T07:55:31;96325.16;;;9.21;54.88
9521;BME280;4798;41.574;23.734;2023-02-17T07:58:00;96322.88;;;9.41;53.71
9521;BME280;4798;41.574;23.734;2023-02-17T08:00:28;96329.59;;;9.61;53.65
9521;BME280;4798;41.574;23.734;2023-02-17T08:02:56;96327.81;;;10.28;52.39
9521;BME280;4798;41.574;23.734;2023-02-17T08:05:24;96321.00;;;10.92;50.89
9521;BME280;4798;41.574;23.734;2023-02-17T08:07:53;96324.75;;;10.74;50.46
9521;BME280;4798;41.574;23.734;2023-02-17T08:10:37;96322.44;;;10.99;50.15
9521;BME280;4798;41.574;23.734;2023-02-17T08:13:24;96261.56;;;11.41;48.62
9521;BME280;4798;41.574;23.734;2023-02-17T08:15:52;96316.28;;;12.32;47.18
9521;BME280;4798;41.574;23.734;2023-02-17T08:18:21;96312.94;;;12.94;46.36
9521;BME280;4798;41.574;23.734;2023-02-17T08:20:49;96311.91;;;12.11;47.18
9521;BME280;4798;41.574;23.734;2023-02-17T08:23:18;96300.94;;;12.91;45.95
9521;BME280;4798;41.574;23.734;2023-02-17T08:25:48;96295.97;;;13.05;45.17
9521;BME280;4798;41.574;23.734;2023-02-17T08:28:16;96268.81;;;13.03;44.00
9521;BME280;4798;41.574;23.734;2023-02-17T08:30:46;96298.81;;;13.60;43.76
9521;BME280;4798;41.574;23.734;2023-02-17T08:33:15;96284.69;;;13.75;43.84
9521;BME280;4798;41.574;23.734;2023-02-17T08:35:44;96299.03;;;12.35;44.65
9521;BME280;4798;41.574;23.734;2023-02-17T08:38:13;96283.56;;;13.25;43.46
9521;BME280;4798;41.574;23.734;2023-02-17T08:40:42;96288.06;;;13.25;43.91
9521;BME280;4798;41.574;23.734;2023-02-17T08:43:12;96296.97;;;13.81;42.76
9521;BME280;4798;41.574;23.734;2023-02-17T08:45:40;96286.56;;;14.05;42.42
9521;BME280;4798;41.574;23.734;2023-02-17T08:48:08;96284.97;;;14.49;41.81
9521;BME280;4798;41.574;23.734;2023-02-17T08:50:36;96252.19;;;14.23;41.69
9521;BME280;4798;41.574;23.734;2023-02-17T08:53:05;96288.69;;;14.53;41.78
9521;BME280;4798;41.574;23.734;2023-02-17T08:55:34;96257.22;;;14.50;41.33
9521;BME280;4798;41.574;23.734;2023-02-17T08:58:16;96278.00;;;14.63;41.40
9521;BME280;4798;41.574;23.734;2023-02-17T09:00:44;96278.03;;;15.27;41.00
9521;BME280;4798;41.574;23.734;2023-02-17T09:03:13;96287.84;;;15.37;40.73
9521;BME280;4798;41.574;23.734;2023-02-17T09:05:41;96285.66;;;14.95;41.25
9521;BME280;4798;41.574;23.734;2023-02-17T09:08:12;96283.13;;;14.34;40.95
9521;BME280;4798;41.574;23.734;2023-02-17T09:10:40;96199.50;;;14.79;41.14
9521;BME280;4798;41.574;23.734;2023-02-17T09:13:08;96269.19;;;16.09;38.78
9521;BME280;4798;41.574;23.734;2023-02-17T09:15:38;96274.41;;;15.57;40.22
9521;BME280;4798;41.574;23.734;2023-02-17T09:18:06;96267.53;;;16.18;39.37
9521;BME280;4798;41.574;23.734;2023-02-17T09:20:35;96271.00;;;16.19;39.19
9521;BME280;4798;41.574;23.734;2023-02-17T09:23:06;96271.06;;;15.75;39.55
9521;BME280;4798;41.574;23.734;2023-02-17T09:25:34;96274.53;;;15.32;39.81
9521;BME280;4798;41.574;23.734;2023-02-17T09:28:03;96238.56;;;15.14;39.59
9521;BME280;4798;41.574;23.734;2023-02-17T09:30:31;96260.56;;;15.50;39.41
9521;BME280;4798;41.574;23.734;2023-02-17T09:33:02;96226.59;;;15.89;39.45
9521;BME280;4798;41.574;23.734;2023-02-17T09:35:31;96089.19;;;14.40;39.48
9521;BME280;4798;41.574;23.734;2023-02-17T09:38:00;96247.56;;;15.23;39.97
9521;BME280;4798;41.574;23.734;2023-02-17T09:40:37;96238.03;;;15.95;39.44
9521;BME280;4798;41.574;23.734;2023-02-17T09:43:11;96239.53;;;16.63;38.06
9521;BME280;4798;41.574;23.734;2023-02-17T09:45:42;96243.47;;;15.84;38.93
9521;BME280;4798;41.574;23.734;2023-02-17T09:48:15;96236.69;;;16.55;38.40
9521;BME280;4798;41.574;23.734;2023-02-17T09:50:52;96236.81;;;16.39;38.46
9521;BME280;4798;41.574;23.734;2023-02-17T09:53:27;96230.56;;;15.92;38.75
9521;BME280;4798;41.574;23.734;2023-02-17T09:56:01;96238.53;;;15.68;39.12
9521;BME280;4798;41.574;23.734;2023-02-17T09:58:34;96221.56;;;15.82;38.80
9521;BME280;4798;41.574;23.734;2023-02-17T10:01:06;96224.59;;;16.57;37.84
9521;BME280;4798;41.574;23.734;2023-02-17T10:03:42;96207.22;;;17.02;37.04
9521;BME280;4798;41.574;23.734;2023-02-17T10:06:14;96172.19;;;17.17;36.06
9521;BME280;4798;41.574;23.734;2023-02-17T10:08:47;96204.69;;;17.10;36.63
9521;BME280;4798;41.574;23.734;2023-02-17T10:11:22;96102.25;;;17.19;35.86
9521;BME280;4798;41.574;23.734;2023-02-17T10:13:56;96188.22;;;18.78;34.95
9521;BME280;4798;41.574;23.734;2023-02-17T10:16:29;96180.50;;;19.13;34.70
9521;BME280;4798;41.574;23.734;2023-02-17T10:19:06;96180.19;;;18.51;34.53
9521;BME280;4798;41.574;23.734;2023-02-17T10:21:41;96187.03;;;17.98;35.10
9521;BME280;4798;41.574;23.734;2023-02-17T10:24:11;96177.75;;;18.90;34.95
9521;BME280;4798;41.574;23.734;2023-02-17T10:26:47;96167.91;;;18.99;33.79
9521;BME280;4798;41.574;23.734;2023-02-17T10:29:30;96163.16;;;20.21;33.13
9521;BME280;4798;41.574;23.734;2023-02-17T10:32:13;96132.38;;;20.36;32.46
9521;BME280;4798;41.574;23.734;2023-02-17T10:34:56;96157.34;;;20.67;31.79
9521;BME280;4798;41.574;23.734;2023-02-17T10:37:37;96149.88;;;20.24;32.44
9521;BME280;4798;41.574;23.734;2023-02-17T10:40:12;96139.69;;;21.86;32.25
9521;BME280;4798;41.574;23.734;2023-02-17T10:42:42;96131.28;;;21.79;30.56
9521;BME280;4798;41.574;23.734;2023-02-17T10:45:14;96118.63;;;21.45;31.21
9521;BME280;4798;41.574;23.734;2023-02-17T10:47:46;96124.09;;;22.08;30.47
9521;BME280;4798;41.574;23.734;2023-02-17T10:50:20;96113.59;;;20.70;31.41
9521;BME280;4798;41.574;23.734;2023-02-17T10:52:49;96108.00;;;22.21;30.12
9521;BME280;4798;41.574;23.734;2023-02-17T10:55:23;96114.69;;;22.23;30.32
9521;BME280;4798;41.574;23.734;2023-02-17T10:57:57;96100.38;;;22.23;30.13
9521;BME280;4798;41.574;23.734;2023-02-17T11:00:27;96086.78;;;24.05;29.77
9521;BME280;4798;41.574;23.734;2023-02-17T11:02:55;96084.91;;;22.69;29.92
9521;BME280;4798;41.574;23.734;2023-02-17T11:05:27;96060.84;;;22.18;30.02
9521;BME280;4798;41.574;23.734;2023-02-17T11:07:57;96090.94;;;22.37;30.50
9521;BME280;4798;41.574;23.734;2023-02-17T11:10:29;96026.72;;;22.93;29.68
9521;BME280;4798;41.574;23.734;2023-02-17T11:12:59;96073.25;;;22.77;29.76
9521;BME280;4798;41.574;23.734;2023-02-17T11:15:33;96074.81;;;22.49;29.73
9521;BME280;4798;41.574;23.734;2023-02-17T11:18:08;96067.91;;;23.31;29.02
9521;BME280;4798;41.574;23.734;2023-02-17T11:20:39;96058.28;;;23.21;29.02
9521;BME280;4798;41.574;23.734;2023-02-17T11:23:21;96053.53;;;22.98;28.75
9521;BME280;4798;41.574;23.734;2023-02-17T11:25:59;96053.22;;;23.41;28.39
9521;BME280;4798;41.574;23.734;2023-02-17T11:28:28;96040.56;;;23.12;28.09
9521;BME280;4798;41.574;23.734;2023-02-17T11:30:58;96047.22;;;23.35;27.97
9521;BME280;4798;41.574;23.734;2023-02-17T11:33:32;96040.22;;;24.12;27.92
9521;BME280;4798;41.574;23.734;2023-02-17T11:36:03;95884.09;;;24.07;26.53
9521;BME280;4798;41.574;23.734;2023-02-17T11:38:41;96029.81;;;24.62;26.86
9521;BME280;4798;41.574;23.734;2023-02-17T11:41:10;95964.25;;;24.32;26.70
9521;BME280;4798;41.574;23.734;2023-02-17T11:43:50;96020.81;;;23.65;26.71
9521;BME280;4798;41.574;23.734;2023-02-17T11:46:30;96010.72;;;24.83;26.88
9521;BME280;4798;41.574;23.734;2023-02-17T11:49:35;96011.75;;;24.66;26.11
9521;BME280;4798;41.574;23.734;2023-02-17T11:52:20;96005.97;;;24.68;26.22
9521;BME280;4798;41.574;23.734;2023-02-17T11:58:06;95992.00;;;25.76;25.70
9521;BME280;4798;41.574;23.734;2023-02-17T12:00:43;95978.00;;;27.29;23.46
9521;BME280;4798;41.574;23.734;2023-02-17T12:03:38;95971.84;;;27.97;23.65
9521;BME280;4798;41.574;23.734;2023-02-17T12:06:13;95968.22;;;25.58;24.08
9521;BME280;4798;41.574;23.734;2023-02-17T12:08:56;95961.06;;;25.50;24.23
9521;BME280;4798;41.574;23.734;2023-02-17T12:11:35;95955.91;;;25.92;23.88
9521;BME280;4798;41.574;23.734;2023-02-17T12:14:18;95938.25;;;25.39;24.64
9521;BME280;4798;41.574;23.734;2023-02-17T12:16:55;95951.56;;;26.72;22.70
9521;BME280;4798;41.574;23.734;2023-02-17T12:19:37;95947.94;;;26.14;20.01
9521;BME280;4798;41.574;23.734;2023-02-17T12:22:15;95900.06;;;26.25;21.13
9521;BME280;4798;41.574;23.734;2023-02-17T12:24:55;95940.63;;;27.07;20.88
9521;BME280;4798;41.574;23.734;2023-02-17T12:27:32;95925.44;;;26.87;21.20
9521;BME280;4798;41.574;23.734;2023-02-17T12:30:17;95905.69;;;27.09;21.14
9521;BME280;4798;41.574;23.734;2023-02-17T12:32:59;95926.41;;;28.27;20.60
9521;BME280;4798;41.574;23.734;2023-02-17T12:35:36;95915.84;;;28.52;21.71
9521;BME280;4798;41.574;23.734;2023-02-17T12:38:10;95918.75;;;28.36;21.35
9521;BME280;4798;41.574;23.734;2023-02-17T12:40:45;95912.44;;;26.77;22.16
9521;BME280;4798;41.574;23.734;2023-02-17T12:43:22;95897.47;;;26.86;21.49
9521;BME280;4798;41.574;23.734;2023-02-17T12:45:54;95917.84;;;27.15;21.41
9521;BME280;4798;41.574;23.734;2023-02-17T12:48:28;95881.88;;;26.83;20.81
9521;BME280;4798;41.574;23.734;2023-02-17T12:51:05;95911.84;;;26.68;20.60
9521;BME280;4798;41.574;23.734;2023-02-17T12:53:43;95898.06;;;26.76;18.70
9521;BME280;4798;41.574;23.734;2023-02-17T12:59:16;95853.72;;;26.95;20.44
9521;BME280;4798;41.574;23.734;2023-02-17T13:01:51;95898.28;;;26.33;20.33
9521;BME280;4798;41.574;23.734;2023-02-17T13:04:23;95892.19;;;26.20;21.01
9521;BME280;4798;41.574;23.734;2023-02-17T13:06:57;95899.06;;;25.83;21.53
9521;BME280;4798;41.574;23.734;2023-02-17T13:09:31;95895.16;;;26.69;20.42
9521;BME280;4798;41.574;23.734;2023-02-17T13:12:29;95842.69;;;24.31;21.06
9521;BME280;4798;41.574;23.734;2023-02-17T13:14:59;95900.59;;;25.21;21.62
9521;BME280;4798;41.574;23.734;2023-02-17T13:17:31;95892.47;;;26.15;20.86
9521;BME280;4798;41.574;23.734;2023-02-17T13:23:27;95892.09;;;26.17;21.39
9521;BME280;4798;41.574;23.734;2023-02-17T13:29:18;95893.81;;;25.59;22.16
9521;BME280;4798;41.574;23.734;2023-02-17T13:31:51;95888.75;;;25.57;21.18
9521;BME280;4798;41.574;23.734;2023-02-17T13:34:26;95879.72;;;26.04;21.10
9521;BME280;4798;41.574;23.734;2023-02-17T13:36:55;95881.13;;;26.67;21.30
9521;BME280;4798;41.574;23.734;2023-02-17T13:39:33;95888.53;;;26.13;20.80
9521;BME280;4798;41.574;23.734;2023-02-17T13:42:02;95885.41;;;26.49;20.33
9521;BME280;4798;41.574;23.734;2023-02-17T13:44:38;95873.31;;;25.77;21.67
9521;BME280;4798;41.574;23.734;2023-02-17T13:47:14;95882.69;;;25.64;21.73
9521;BME280;4798;41.574;23.734;2023-02-17T13:49:51;95882.19;;;24.99;21.28
9521;BME280;4798;41.574;23.734;2023-02-17T13:52:23;95885.22;;;25.57;21.62
9521;BME280;4798;41.574;23.734;2023-02-17T13:54:52;95880.41;;;26.70;21.00